createdAt,value
2022-11-28T00:02:34.340Z,99764.78
2022-11-28T00:05:10.519Z,99763.94
2022-11-28T00:07:45.270Z,99751.84
2022-11-28T00:10:24.564Z,99756.16
2022-11-28T00:12:57.937Z,99753.53
2022-11-28T00:15:36.238Z,99766.56
2022-11-28T00:18:12.298Z,99777.88
2022-11-28T00:20:45.917Z,99771.81
2022-11-28T00:23:16.371Z,99763.13
2022-11-28T00:25:47.066Z,99766.63
2022-11-28T00:28:20.431Z,99761.41
2022-11-28T00:30:58.554Z,99762.28
2022-11-28T00:33:30.826Z,99754.47
2022-11-28T00:36:00.785Z,99754.47
2022-11-28T00:38:32.981Z,99745.88
2022-11-28T00:41:07.530Z,99742.41
2022-11-28T00:43:40.709Z,99733.66
2022-11-28T00:46:12.852Z,99741.56
2022-11-28T00:48:47.407Z,99732.00
2022-11-28T00:51:27.945Z,99725.06
2022-11-28T00:54:03.094Z,99716.41
2022-11-28T00:56:45.549Z,99716.41
2022-11-28T00:59:19.710Z,99714.63
2022-11-28T01:01:55.412Z,99706.84
2022-11-28T01:04:35.843Z,99705.91
2022-11-28T01:07:14.558Z,99705.97
2022-11-28T01:09:45.770Z,99704.22
2022-11-28T01:12:33.606Z,99685.94
2022-11-28T01:15:11.081Z,99686.00
2022-11-28T01:17:45.076Z,99691.22
2022-11-28T01:20:18.096Z,99693.81
2022-11-28T01:22:47.154Z,99688.63
2022-11-28T01:25:17.352Z,99696.47
2022-11-28T01:27:53.628Z,99690.38
2022-11-28T01:30:24.639Z,99686.94
2022-11-28T01:32:59.060Z,99688.72
2022-11-28T01:35:35.257Z,99683.50
2022-11-28T01:38:05.599Z,99680.91
2022-11-28T01:40:45.287Z,99687.00
2022-11-28T01:43:16.181Z,99689.59
2022-11-28T01:45:49.120Z,99679.25
2022-11-28T01:48:25.211Z,99685.25
2022-11-28T01:51:03.468Z,99680.94
2022-11-28T01:53:40.462Z,99669.66
2022-11-28T01:56:17.428Z,99680.06
2022-11-28T01:58:55.083Z,99673.09
2022-11-28T02:01:28.140Z,99669.66
2022-11-28T02:04:03.167Z,99669.66
2022-11-28T02:06:40.732Z,99668.84
2022-11-28T02:09:12.972Z,99675.72
2022-11-28T02:12:13.647Z,99667.03
2022-11-28T02:15:05.235Z,99658.44
2022-11-28T02:17:54.063Z,99643.63
2022-11-28T02:21:05.622Z,99629.81
2022-11-28T02:24:21.516Z,99631.50
2022-11-28T02:27:10.549Z,99620.19
2022-11-28T02:30:03.871Z,99630.69
2022-11-28T02:32:44.542Z,99635.03
2022-11-28T02:35:21.216Z,99638.50
2022-11-28T02:38:06.236Z,99638.50
2022-11-28T02:40:41.615Z,99640.31
2022-11-28T02:43:32.285Z,99643.72
2022-11-28T02:46:16.974Z,99637.69
2022-11-28T02:48:53.386Z,99648.09
2022-11-28T02:51:35.788Z,99644.63
2022-11-28T02:54:13.034Z,99649.84
2022-11-28T02:56:48.389Z,99668.09
2022-11-28T02:59:49.122Z,99652.47
2022-11-28T03:02:29.369Z,99655.91
2022-11-28T03:05:23.559Z,99647.25
2022-11-28T03:08:03.013Z,99645.50
2022-11-28T03:10:47.193Z,99646.31
2022-11-28T03:13:30.734Z,99630.69
2022-11-28T03:16:20.539Z,99639.31
2022-11-28T03:19:01.753Z,99648.84
2022-11-28T03:21:50.895Z,99649.69
2022-11-28T03:24:31.867Z,99640.09
2022-11-28T03:27:15.935Z,99636.56
2022-11-28T03:29:51.077Z,99639.19
2022-11-28T03:32:36.144Z,99649.59
2022-11-28T03:35:22.661Z,99642.56
2022-11-28T03:38:04.608Z,99633.84
2022-11-28T03:40:44.456Z,99639.91
2022-11-28T03:43:22.580Z,99625.13
2022-11-28T03:45:55.650Z,99638.13
2022-11-28T03:48:31.100Z,99624.19
2022-11-28T03:51:05.346Z,99623.28
2022-11-28T03:53:51.188Z,99620.66
2022-11-28T03:56:30.164Z,99617.97
2022-11-28T03:59:11.956Z,99621.44
2022-11-28T04:01:54.511Z,99616.22
2022-11-28T04:04:39.576Z,99613.56
2022-11-28T04:07:26.149Z,99608.34
2022-11-28T04:10:16.496Z,99611.81
2022-11-28T04:12:59.262Z,99619.63
2022-11-28T04:15:39.112Z,99604.78
2022-11-28T04:18:17.918Z,99624.75
2022-11-28T04:21:00.765Z,99619.50
2022-11-28T04:23:36.212Z,99616.91
2022-11-28T04:26:13.891Z,99613.38
2022-11-28T04:28:46.741Z,99616.06
2022-11-28T04:31:22.868Z,99618.56
2022-11-28T04:33:59.249Z,99616.91
2022-11-28T04:36:32.994Z,99617.78
2022-11-28T04:39:04.318Z,99616.91
2022-11-28T04:41:40.089Z,99609.13
2022-11-28T04:44:18.417Z,99616.91
2022-11-28T04:46:57.795Z,99616.91
2022-11-28T04:49:32.404Z,99617.72
2022-11-28T04:52:10.256Z,99622.91
2022-11-28T04:54:59.206Z,99622.94
2022-11-28T04:57:34.085Z,99641.13
2022-11-28T05:00:22.901Z,99638.53
2022-11-28T05:02:56.838Z,99630.75
2022-11-28T05:05:40.415Z,99628.97
2022-11-28T05:08:09.714Z,99636.72
2022-11-28T05:10:44.776Z,99637.59
2022-11-28T05:13:27.662Z,99645.38
2022-11-28T05:16:08.951Z,99641.88
2022-11-28T05:18:59.072Z,99641.03
2022-11-28T05:21:34.312Z,99644.50
2022-11-28T05:24:04.643Z,99631.50
2022-11-28T05:26:45.359Z,99637.50
2022-11-28T05:29:20.758Z,99639.22
2022-11-28T05:31:55.286Z,99643.56
2022-11-28T05:34:29.620Z,99634.03
2022-11-28T05:37:01.234Z,99640.06
2022-11-28T05:39:31.539Z,99636.47
2022-11-28T05:42:17.076Z,99629.59
2022-11-28T05:44:57.397Z,99625.22
2022-11-28T05:47:30.036Z,99634.75
2022-11-28T05:50:06.473Z,99633.88
2022-11-28T05:52:40.538Z,99626.91
2022-11-28T05:55:12.176Z,99635.59
2022-11-28T05:57:42.294Z,99627.78
2022-11-28T06:00:17.976Z,99636.41
2022-11-28T06:03:01.289Z,99631.19
2022-11-28T06:05:46.232Z,99624.25
2022-11-28T06:08:17.876Z,99623.38
2022-11-28T06:11:04.797Z,99612.97
2022-11-28T06:13:38.404Z,99615.56
2022-11-28T06:16:11.369Z,99614.63
2022-11-28T06:18:41.687Z,99609.41
2022-11-28T06:21:23.777Z,99604.22
2022-11-28T06:24:01.950Z,99599.00
2022-11-28T06:26:33.799Z,99600.66
2022-11-28T06:29:07.073Z,99605.88
2022-11-28T06:31:45.898Z,99606.75
2022-11-28T06:34:25.599Z,99605.88
2022-11-28T06:37:05.076Z,99603.28
2022-11-28T06:39:36.085Z,99604.13
2022-11-28T06:42:11.050Z,99600.66
2022-11-28T06:44:41.193Z,99608.47
2022-11-28T06:47:15.586Z,99601.53
2022-11-28T06:49:44.548Z,99601.53
2022-11-28T06:52:13.630Z,99598.91
2022-11-28T06:54:43.948Z,99598.94
2022-11-28T06:57:13.835Z,99595.47
2022-11-28T06:59:43.533Z,99596.34
2022-11-28T07:02:19.893Z,99605.06
2022-11-28T07:04:54.473Z,99618.06
2022-11-28T07:07:23.957Z,99618.94
2022-11-28T07:10:05.799Z,99625.91
2022-11-28T07:12:41.526Z,99625.09
2022-11-28T07:15:14.939Z,99625.13
2022-11-28T07:17:47.079Z,99623.47
2022-11-28T07:20:19.085Z,99627.81
2022-11-28T07:22:52.795Z,99638.28
2022-11-28T07:25:21.861Z,99664.38
2022-11-28T07:27:53.980Z,99634.09
2022-11-28T07:30:23.649Z,99634.13
2022-11-28T07:32:56.764Z,99632.41
2022-11-28T07:35:26.392Z,99632.53
2022-11-28T07:37:55.043Z,99638.59
2022-11-28T07:40:24.446Z,99632.63
2022-11-28T07:42:53.161Z,99630.84
2022-11-28T07:45:22.884Z,99638.69
2022-11-28T07:47:58.254Z,99638.69
2022-11-28T07:50:26.957Z,99633.56
2022-11-28T07:53:04.151Z,99637.91
2022-11-28T07:55:39.757Z,99641.38
2022-11-28T07:58:09.117Z,99637.06
2022-11-28T08:00:38.896Z,99635.38
2022-11-28T08:03:10.174Z,99635.38
2022-11-28T08:05:39.181Z,99635.41
2022-11-28T08:08:08.884Z,99631.09
2022-11-28T08:10:44.365Z,99641.56
2022-11-28T08:13:16.270Z,99636.34
2022-11-28T08:15:46.135Z,99640.75
2022-11-28T08:18:16.714Z,99644.22
2022-11-28T08:20:45.572Z,99646.84
2022-11-28T08:23:14.862Z,99645.97
2022-11-28T08:25:43.929Z,99654.72
2022-11-28T08:28:16.471Z,99652.19
2022-11-28T08:30:47.075Z,99649.59
2022-11-28T08:33:19.013Z,99658.28
2022-11-28T08:35:49.023Z,99654.00
2022-11-28T08:38:23.777Z,99658.34
2022-11-28T08:41:02.610Z,99657.50
2022-11-28T08:43:35.242Z,99649.78
2022-11-28T08:46:05.032Z,99647.16
2022-11-28T08:48:38.017Z,99655.06
2022-11-28T08:51:11.893Z,99649.03
2022-11-28T08:53:43.989Z,99652.56
2022-11-28T08:56:15.910Z,99649.13
2022-11-28T08:58:49.063Z,99654.34
2022-11-28T09:01:21.369Z,99656.09
2022-11-28T09:03:56.330Z,99663.97
2022-11-28T09:06:28.949Z,99659.66
2022-11-28T09:09:01.973Z,99665.72
2022-11-28T09:11:31.439Z,99664.94
2022-11-28T09:14:01.195Z,99658.06
2022-11-28T09:16:29.707Z,99659.88
2022-11-28T09:19:01.877Z,99660.75
2022-11-28T09:21:36.129Z,99669.44
2022-11-28T09:24:07.122Z,99668.59
2022-11-28T09:26:36.868Z,99675.56
2022-11-28T09:29:11.869Z,99678.22
2022-11-28T09:31:52.430Z,99680.00
2022-11-28T09:34:31.328Z,99677.41
2022-11-28T09:37:05.148Z,99682.63
2022-11-28T09:40:04.814Z,99682.63
2022-11-28T09:42:42.083Z,99691.38
2022-11-28T09:45:29.989Z,99690.56
2022-11-28T09:48:22.668Z,99692.31
2022-11-28T09:51:11.543Z,99689.78
2022-11-28T09:53:47.430Z,99689.78
2022-11-28T09:56:23.121Z,99695.00
2022-11-28T09:59:05.382Z,99683.72
2022-11-28T10:01:58.685Z,99681.19
2022-11-28T10:04:48.007Z,99676.91
2022-11-28T10:07:33.595Z,99696.91
2022-11-28T10:10:29.107Z,99683.03
2022-11-28T10:13:17.260Z,99678.72
2022-11-28T10:16:02.653Z,99676.16
2022-11-28T10:18:45.260Z,99676.22
2022-11-28T10:21:34.876Z,99674.56
2022-11-28T10:24:15.406Z,99671.16
2022-11-28T10:26:52.341Z,99677.25
2022-11-28T10:29:30.300Z,99669.47
2022-11-28T10:32:07.411Z,99679.13
2022-11-28T10:34:48.643Z,99673.94
2022-11-28T10:37:27.437Z,99667.91
2022-11-28T10:40:14.471Z,99671.41
2022-11-28T10:42:55.930Z,99674.09
2022-11-28T10:45:38.962Z,99664.53
2022-11-28T10:48:38.952Z,99668.97
2022-11-28T10:51:21.585Z,99681.19
2022-11-28T10:54:04.954Z,99674.25
2022-11-28T10:56:44.279Z,99674.31
2022-11-28T10:59:26.932Z,99678.69
2022-11-28T11:02:03.813Z,99675.28
2022-11-28T11:04:43.333Z,99670.13
2022-11-28T11:07:21.794Z,99666.72
2022-11-28T11:09:54.577Z,99671.13
2022-11-28T11:12:33.772Z,99672.00
2022-11-28T11:15:19.264Z,99669.41
2022-11-28T11:17:52.652Z,99666.88
2022-11-28T11:20:35.011Z,99660.78
2022-11-28T11:23:19.256Z,99662.56
2022-11-28T11:26:02.969Z,99661.66
2022-11-28T11:28:52.703Z,99663.44
2022-11-28T11:31:33.531Z,99660.88
2022-11-28T11:34:06.985Z,99657.41
2022-11-28T11:36:43.361Z,99656.59
2022-11-28T11:39:25.658Z,99661.84
2022-11-28T11:42:12.784Z,99661.84
2022-11-28T11:44:48.137Z,99663.63
2022-11-28T11:47:45.615Z,99661.91
2022-11-28T11:50:23.205Z,99660.16
2022-11-28T11:53:08.159Z,99661.84
2022-11-28T11:55:49.833Z,99667.06
2022-11-28T11:58:26.282Z,99667.06
2022-11-28T12:01:06.033Z,99669.66
2022-11-28T12:03:50.597Z,99668.84
2022-11-28T12:06:34.452Z,99679.19
2022-11-28T12:09:17.395Z,99671.38
2022-11-28T12:11:53.597Z,99673.97
2022-11-28T12:14:35.403Z,99677.44
2022-11-28T12:20:52.332Z,99681.78
2022-11-28T12:23:54.523Z,99680.94
2022-11-28T12:26:52.379Z,99701.78
2022-11-28T12:29:45.283Z,99691.34
2022-11-28T12:32:44.056Z,99682.66
2022-11-28T12:35:33.404Z,99681.78
2022-11-28T12:38:15.808Z,99684.41
2022-11-28T12:41:03.663Z,99690.41
2022-11-28T12:43:44.116Z,99686.06
2022-11-28T12:46:28.987Z,99674.69
2022-11-28T12:49:18.040Z,99665.13
2022-11-28T12:52:05.754Z,99670.34
2022-11-28T12:54:57.860Z,99672.09
2022-11-28T12:57:35.186Z,99672.97
2022-11-28T13:00:24.148Z,99674.75
2022-11-28T13:03:15.275Z,99664.38
2022-11-28T13:06:00.288Z,99673.06
2022-11-28T13:08:59.915Z,99666.16
2022-11-28T13:11:49.899Z,99667.91
2022-11-28T13:14:36.390Z,99680.94
2022-11-28T13:17:21.777Z,99676.59
2022-11-28T13:20:03.762Z,99676.59
2022-11-28T13:22:50.273Z,99687.91
2022-11-28T13:25:33.476Z,99673.97
2022-11-28T13:28:26.453Z,99675.72
2022-11-28T13:31:07.454Z,99670.44
2022-11-28T13:33:54.475Z,99673.97
2022-11-28T13:39:38.725Z,99673.13
2022-11-28T13:42:59.521Z,99679.25
2022-11-28T13:45:32.254Z,99679.25
2022-11-28T13:51:34.100Z,99681.03
2022-11-28T13:54:42.522Z,99685.41
2022-11-28T13:57:34.530Z,99684.56
2022-11-28T14:00:27.749Z,99686.31
2022-11-28T14:03:02.398Z,99688.09
2022-11-28T14:05:39.157Z,99685.53
2022-11-28T14:08:31.539Z,99682.91
2022-11-28T14:11:32.644Z,99680.31
2022-11-28T14:14:32.035Z,99686.44
2022-11-28T14:17:37.231Z,99679.56
2022-11-28T14:20:22.534Z,99683.06
2022-11-28T14:23:10.257Z,99677.84
2022-11-28T14:25:54.097Z,99680.50
2022-11-28T14:28:40.814Z,99682.25
2022-11-28T14:31:33.735Z,99686.59
2022-11-28T14:34:46.240Z,99695.34
2022-11-28T14:37:57.772Z,99699.69
2022-11-28T14:41:06.831Z,99707.53
2022-11-28T14:43:40.521Z,99707.50
2022-11-28T14:46:40.832Z,99706.66
2022-11-28T14:49:29.574Z,99714.47
2022-11-28T14:52:38.990Z,99708.38
2022-11-28T14:55:33.357Z,99712.75
2022-11-28T14:58:18.012Z,99716.22
2022-11-28T15:00:56.420Z,99708.44
2022-11-28T15:03:43.787Z,99710.16
2022-11-28T15:06:31.968Z,99711.88
2022-11-28T15:09:23.835Z,99712.75
2022-11-28T15:12:11.968Z,99711.09
2022-11-28T15:15:03.307Z,99722.38
2022-11-28T15:17:39.064Z,99725.00
2022-11-28T15:20:22.047Z,99731.06
2022-11-28T15:22:59.437Z,99729.38
2022-11-28T15:25:42.768Z,99736.34
2022-11-28T15:28:28.836Z,99730.25
2022-11-28T15:31:05.515Z,99732.03
2022-11-28T15:33:49.407Z,99725.94
2022-11-28T15:36:38.075Z,99730.25
2022-11-28T15:39:30.874Z,99737.22
2022-11-28T15:42:26.453Z,99731.19
2022-11-28T15:45:06.398Z,99733.81
2022-11-28T15:47:35.816Z,99725.13
2022-11-28T15:50:16.023Z,99730.34
2022-11-28T15:52:54.555Z,99739.09
2022-11-28T15:55:24.569Z,99744.31
2022-11-28T15:57:53.787Z,99733.03
2022-11-28T16:00:35.049Z,99738.25
2022-11-28T16:03:10.202Z,99750.47
2022-11-28T16:05:40.512Z,99743.47
2022-11-28T16:08:32.851Z,99753.06
2022-11-28T16:11:17.460Z,99745.25
2022-11-28T16:14:04.416Z,99753.06
2022-11-28T16:16:59.662Z,99761.72
2022-11-28T16:19:39.724Z,99763.50
2022-11-28T16:22:24.014Z,99761.78
2022-11-28T16:25:13.843Z,99761.78
2022-11-28T16:27:57.421Z,99765.25
2022-11-28T16:31:00.469Z,99771.31
2022-11-28T16:33:44.363Z,99772.22
2022-11-28T16:36:24.330Z,99776.59
2022-11-28T16:39:09.351Z,99771.38
2022-11-28T16:41:40.718Z,99771.38
2022-11-28T16:44:22.979Z,99775.69
2022-11-28T16:46:58.696Z,99779.25
2022-11-28T16:50:01.625Z,99783.56
2022-11-28T16:52:50.590Z,99769.69
2022-11-28T16:55:59.521Z,99763.59
2022-11-28T16:58:32.271Z,99767.13
2022-11-28T17:01:14.543Z,99765.41
2022-11-28T17:03:58.075Z,99786.31
2022-11-28T17:06:41.557Z,99773.28
2022-11-28T17:09:34.355Z,99775.91
2022-11-28T17:12:24.204Z,99776.78
2022-11-28T17:15:04.340Z,99770.75
2022-11-28T17:17:41.917Z,99775.97
2022-11-28T17:20:18.077Z,99790.00
2022-11-28T17:22:57.090Z,99788.25
2022-11-28T17:25:30.908Z,99792.63
2022-11-28T17:28:06.743Z,99791.75
2022-11-28T17:30:56.359Z,99798.75
2022-11-28T17:33:43.234Z,99797.84
2022-11-28T17:36:25.278Z,99820.50
2022-11-28T17:39:08.865Z,99797.91
2022-11-28T17:41:57.213Z,99807.44
2022-11-28T17:44:50.019Z,99810.09
2022-11-28T17:47:29.358Z,99813.59
2022-11-28T17:50:10.265Z,99815.31
2022-11-28T17:52:48.681Z,99812.75
2022-11-28T17:55:27.757Z,99809.28
2022-11-28T17:58:04.245Z,99812.69
2022-11-28T18:00:34.807Z,99821.47
2022-11-28T18:03:06.673Z,99817.09
2022-11-28T18:05:42.579Z,99810.22
2022-11-28T18:08:27.376Z,99807.59
2022-11-28T18:11:13.034Z,99821.56
2022-11-28T18:13:52.658Z,99816.38
2022-11-28T18:16:29.877Z,99816.38
2022-11-28T18:19:08.282Z,99824.19
2022-11-28T18:21:39.986Z,99826.81
2022-11-28T18:24:13.705Z,99835.53
2022-11-28T18:26:54.093Z,99826.78
2022-11-28T18:29:28.513Z,99826.78
2022-11-28T18:32:04.561Z,99831.22
2022-11-28T18:34:40.470Z,99829.50
2022-11-28T18:37:20.288Z,99832.09
2022-11-28T18:39:58.072Z,99832.09
2022-11-28T18:42:35.575Z,99832.09
2022-11-28T18:45:12.196Z,99835.63
2022-11-28T18:47:46.041Z,99835.63
2022-11-28T18:50:26.200Z,99829.50
2022-11-28T18:53:00.085Z,99830.44
2022-11-28T18:55:35.473Z,99840.84
2022-11-28T18:58:11.187Z,99834.78
2022-11-28T19:00:48.254Z,99835.66
2022-11-28T19:03:22.692Z,99839.16
2022-11-28T19:05:56.479Z,99847.03
2022-11-28T19:08:28.922Z,99844.50
2022-11-28T19:11:09.228Z,99851.47
2022-11-28T19:13:47.955Z,99845.38
2022-11-28T19:16:28.822Z,99851.47
2022-11-28T19:19:07.081Z,99849.78
2022-11-28T19:21:51.993Z,99862.78
2022-11-28T19:24:24.802Z,99850.66
2022-11-28T19:27:00.088Z,99855.09
2022-11-28T19:29:38.249Z,99863.81
2022-11-28T19:32:10.762Z,99855.09
2022-11-28T19:34:43.273Z,99859.47
2022-11-28T19:37:19.416Z,99860.31
2022-11-28T19:40:02.180Z,99858.66
2022-11-28T19:42:41.534Z,99859.53
2022-11-28T19:45:19.558Z,99865.63
2022-11-28T19:47:52.590Z,99865.63
2022-11-28T19:50:31.527Z,99869.97
2022-11-28T19:53:04.244Z,99863.88
2022-11-28T19:55:40.419Z,99864.81
2022-11-28T19:58:24.091Z,99869.97
2022-11-28T20:01:08.298Z,99865.69
2022-11-28T20:03:45.469Z,99881.38
2022-11-28T20:06:18.344Z,99870.97
2022-11-28T20:08:51.168Z,99873.56
2022-11-28T20:11:31.750Z,99877.06
2022-11-28T20:14:09.185Z,99876.19
2022-11-28T20:16:48.221Z,99888.38
2022-11-28T20:19:23.919Z,99884.03
2022-11-28T20:21:59.671Z,99885.81
2022-11-28T20:24:37.182Z,99885.75
2022-11-28T20:27:08.927Z,99887.50
2022-11-28T20:29:45.927Z,99901.41
2022-11-28T20:32:19.204Z,99890.03
2022-11-28T20:34:51.203Z,99898.81
2022-11-28T20:37:25.886Z,99891.81
2022-11-28T20:39:58.107Z,99897.03
2022-11-28T20:42:27.359Z,99898.81
2022-11-28T20:44:59.512Z,99893.59
2022-11-28T20:47:35.228Z,99905.75
2022-11-28T20:50:06.255Z,99898.81
2022-11-28T20:52:40.548Z,99904.91
2022-11-28T20:55:14.634Z,99908.38
2022-11-28T20:57:52.554Z,99900.56
2022-11-28T21:00:26.710Z,99906.63
2022-11-28T21:03:00.879Z,99909.25
2022-11-28T21:05:31.373Z,99904.03
2022-11-28T21:08:04.232Z,99911.84
2022-11-28T21:10:37.826Z,99911.00
2022-11-28T21:13:14.977Z,99913.59
2022-11-28T21:15:51.091Z,99903.22
2022-11-28T21:18:23.232Z,99906.72
2022-11-28T21:21:00.967Z,99899.78
2022-11-28T21:23:39.502Z,99907.66
2022-11-28T21:26:15.593Z,99902.44
2022-11-28T21:28:49.420Z,99905.03
2022-11-28T21:31:26.265Z,99912.88
2022-11-28T21:34:06.901Z,99909.41
2022-11-28T21:36:39.923Z,99913.75
2022-11-28T21:39:19.330Z,99911.19
2022-11-28T21:41:57.383Z,99922.53
2022-11-28T21:44:34.212Z,99923.41
2022-11-28T21:47:09.406Z,99919.06
2022-11-28T21:49:45.475Z,99928.72
2022-11-28T21:52:20.679Z,99922.59
2022-11-28T21:54:53.947Z,99927.88
2022-11-28T21:57:29.059Z,99924.41
2022-11-28T22:00:05.315Z,99927.88
2022-11-28T22:02:51.396Z,99927.88
2022-11-28T22:05:28.397Z,99923.50
2022-11-28T22:08:01.585Z,99932.25
2022-11-28T22:10:41.048Z,99922.69
2022-11-28T22:13:17.973Z,99922.69
2022-11-28T22:15:53.332Z,99931.44
2022-11-28T22:18:32.723Z,99926.22
2022-11-28T22:21:49.937Z,99924.50
2022-11-28T22:24:10.115Z,99930.59
2022-11-28T22:26:45.792Z,99928.03
2022-11-28T22:29:25.044Z,99932.38
2022-11-28T22:32:00.045Z,99931.47
2022-11-28T22:34:42.148Z,99937.59
2022-11-28T22:37:18.282Z,99938.47
2022-11-28T22:39:54.915Z,99938.47
2022-11-28T22:42:29.998Z,99937.59
2022-11-28T22:45:06.789Z,99939.34
2022-11-28T22:47:38.956Z,99944.56
2022-11-28T22:50:14.765Z,99950.66
2022-11-28T22:52:52.841Z,99940.16
2022-11-28T22:55:26.635Z,99941.97
2022-11-28T22:58:02.690Z,99964.50
2022-11-28T23:00:45.661Z,99945.44
2022-11-28T23:03:28.712Z,99955.88
2022-11-28T23:06:11.158Z,99958.47
2022-11-28T23:08:49.551Z,99957.63
2022-11-28T23:11:26.645Z,99957.56
2022-11-28T23:14:04.844Z,99962.78
2022-11-28T23:16:41.862Z,99967.19
2022-11-28T23:19:18.262Z,99968.91
2022-11-28T23:21:53.107Z,99965.38
2022-11-28T23:24:34.105Z,99967.97
2022-11-28T23:27:06.445Z,99964.50
2022-11-28T23:29:46.797Z,99966.19
2022-11-28T23:32:23.197Z,99973.13
2022-11-28T23:34:56.764Z,99957.47
2022-11-28T23:37:27.695Z,99962.69
2022-11-28T23:40:03.335Z,99956.59
2022-11-28T23:42:35.642Z,99954.00
2022-11-28T23:45:12.811Z,99963.56
2022-11-28T23:47:43.442Z,99965.38
2022-11-28T23:50:23.413Z,99961.03
2022-11-28T23:52:57.775Z,99964.50
2022-11-28T23:55:27.727Z,99964.50
2022-11-28T23:57:57.279Z,99963.69
